createdAt,value
2018-09-23T00:00:03.506Z,68.08
2018-09-23T00:02:33.823Z,68.60
2018-09-23T00:05:05.262Z,68.81
2018-09-23T00:07:35.994Z,68.87
2018-09-23T00:10:08.116Z,68.86
2018-09-23T00:12:39.174Z,69.08
2018-09-23T00:15:10.045Z,68.85
2018-09-23T00:17:40.192Z,69.04
2018-09-23T00:20:10.578Z,68.95
2018-09-23T00:22:40.587Z,69.07
2018-09-23T00:25:11.960Z,68.92
2018-09-23T00:27:42.126Z,69.67
2018-09-23T00:30:14.344Z,69.68
2018-09-23T00:32:44.431Z,69.88
2018-09-23T00:35:15.302Z,69.80
2018-09-23T00:37:45.759Z,70.38
2018-09-23T00:40:15.776Z,69.88
2018-09-23T00:42:46.196Z,69.69
2018-09-23T00:45:17.553Z,70.12
2018-09-23T00:47:47.973Z,69.72
2018-09-23T00:50:17.892Z,70.26
2018-09-23T00:52:48.759Z,69.99
2018-09-23T00:55:18.956Z,70.33
2018-09-23T00:57:49.025Z,70.17
2018-09-23T01:00:19.358Z,69.95
2018-09-23T01:02:49.720Z,70.13
2018-09-23T01:05:20.296Z,70.11
2018-09-23T01:07:51.404Z,70.65
2018-09-23T01:10:21.364Z,71.04
2018-09-23T01:12:53.232Z,71.40
2018-09-23T01:15:23.961Z,71.98
2018-09-23T01:17:55.423Z,71.62
2018-09-23T01:20:25.365Z,71.42
2018-09-23T01:22:55.837Z,71.58
2018-09-23T01:25:26.229Z,71.70
2018-09-23T01:27:57.109Z,71.11
2018-09-23T01:30:28.216Z,71.28
2018-09-23T01:32:58.414Z,72.10
2018-09-23T01:35:29.562Z,71.53
2018-09-23T01:38:00.461Z,71.88
2018-09-23T01:40:30.416Z,71.39
2018-09-23T01:43:00.221Z,71.93
2018-09-23T01:45:30.568Z,72.75
2018-09-23T01:48:00.903Z,72.95
2018-09-23T01:50:30.965Z,72.11
2018-09-23T01:53:03.170Z,72.46
2018-09-23T01:55:36.450Z,71.74
2018-09-23T01:58:07.259Z,71.00
2018-09-23T02:00:38.515Z,71.45
2018-09-23T02:03:08.658Z,71.12
2018-09-23T02:05:39.061Z,70.43
2018-09-23T02:08:08.907Z,70.59
2018-09-23T02:10:38.686Z,70.32
2018-09-23T02:13:08.937Z,70.57
2018-09-23T02:15:38.979Z,70.15
2018-09-23T02:18:09.022Z,70.51
2018-09-23T02:20:39.548Z,69.97
2018-09-23T02:23:10.278Z,69.87
2018-09-23T02:25:40.989Z,69.40
2018-09-23T02:28:11.526Z,69.92
2018-09-23T02:30:41.623Z,69.92
2018-09-23T02:33:11.769Z,69.79
2018-09-23T02:35:42.495Z,69.75
2018-09-23T02:38:12.623Z,69.81
2018-09-23T02:40:43.182Z,69.44
2018-09-23T02:43:13.361Z,69.58
2018-09-23T02:45:43.614Z,69.49
2018-09-23T02:48:14.521Z,68.98
2018-09-23T02:50:44.785Z,68.73
2018-09-23T02:53:14.921Z,69.59
2018-09-23T02:55:45.210Z,69.42
2018-09-23T02:58:15.628Z,68.95
2018-09-23T03:00:45.562Z,69.42
2018-09-23T03:03:17.089Z,69.53
2018-09-23T03:05:47.363Z,68.66
2018-09-23T03:08:17.448Z,69.03
2018-09-23T03:10:47.417Z,69.15
2018-09-23T03:13:17.893Z,69.26
2018-09-23T03:15:48.974Z,69.41
2018-09-23T03:18:20.188Z,68.74
2018-09-23T03:20:51.895Z,70.20
2018-09-23T03:23:24.167Z,68.52
2018-09-23T03:25:54.521Z,69.17
2018-09-23T03:28:24.986Z,69.26
2018-09-23T03:30:54.841Z,68.61
2018-09-23T03:33:25.285Z,69.59
2018-09-23T03:35:55.443Z,69.98
2018-09-23T03:38:28.060Z,68.67
2018-09-23T03:40:59.779Z,69.13
2018-09-23T03:43:30.294Z,68.96
2018-09-23T03:46:00.987Z,68.75
2018-09-23T03:48:34.773Z,69.08
2018-09-23T03:51:06.132Z,68.62
2018-09-23T03:53:37.579Z,69.10
2018-09-23T03:56:07.875Z,68.92
2018-09-23T03:58:37.839Z,69.79
2018-09-23T04:01:08.728Z,69.95
2018-09-23T04:03:39.985Z,69.32
2018-09-23T04:06:11.038Z,68.77
2018-09-23T04:08:41.480Z,69.24
2018-09-23T04:11:11.653Z,68.78
2018-09-23T04:13:41.944Z,69.21
2018-09-23T04:16:12.411Z,68.73
2018-09-23T04:18:42.464Z,69.00
2018-09-23T04:21:12.756Z,69.12
2018-09-23T04:23:43.609Z,69.18
2018-09-23T04:26:14.315Z,69.12
2018-09-23T04:28:44.539Z,68.28
2018-09-23T04:31:15.383Z,69.23
2018-09-23T04:33:45.878Z,68.97
2018-09-23T04:36:16.836Z,69.17
2018-09-23T04:38:47.138Z,69.04
2018-09-23T04:41:18.256Z,69.10
2018-09-23T04:43:48.507Z,69.19
2018-09-23T04:46:20.027Z,70.19
2018-09-23T04:48:50.195Z,70.15
2018-09-23T04:51:21.491Z,70.01
2018-09-23T04:53:51.640Z,70.51
2018-09-23T04:56:23.074Z,70.75
2018-09-23T04:58:53.471Z,70.72
2018-09-23T05:01:24.936Z,71.14
2018-09-23T05:03:55.289Z,71.21
2018-09-23T05:06:25.163Z,71.36
2018-09-23T05:08:56.026Z,70.99
2018-09-23T05:11:26.395Z,71.99
2018-09-23T05:13:56.275Z,72.71
2018-09-23T05:16:27.313Z,71.93
2018-09-23T05:18:57.529Z,72.17
2018-09-23T05:21:27.994Z,72.88
2018-09-23T05:23:59.434Z,73.19
2018-09-23T05:26:29.676Z,74.03
2018-09-23T05:29:00.004Z,73.90
2018-09-23T05:31:30.462Z,74.45
2018-09-23T05:34:00.496Z,74.52
2018-09-23T05:36:30.601Z,74.50
2018-09-23T05:39:01.288Z,73.91
2018-09-23T05:41:32.711Z,74.11
2018-09-23T05:44:03.575Z,74.08
2018-09-23T05:46:34.730Z,73.94
2018-09-23T05:49:05.431Z,74.41
2018-09-23T05:51:36.643Z,74.16
2018-09-23T05:54:08.150Z,74.54
2018-09-23T05:56:38.591Z,74.29
2018-09-23T05:59:11.878Z,73.63
2018-09-23T06:01:56.742Z,72.87
2018-09-23T06:04:30.936Z,72.70
2018-09-23T06:07:02.935Z,72.97
2018-09-23T06:09:33.226Z,72.66
2018-09-23T06:12:03.154Z,73.20
2018-09-23T06:14:34.415Z,72.93
2018-09-23T06:17:05.550Z,72.15
2018-09-23T06:19:47.182Z,71.87
2018-09-23T06:22:22.656Z,71.14
2018-09-23T06:24:53.763Z,71.61
2018-09-23T06:27:26.987Z,70.75
2018-09-23T06:30:00.891Z,70.76
2018-09-23T06:32:32.321Z,71.03
2018-09-23T06:35:09.000Z,70.87
2018-09-23T06:37:40.531Z,71.97
2018-09-23T06:40:17.926Z,71.27
2018-09-23T06:42:47.786Z,71.43
2018-09-23T06:45:21.201Z,70.68
2018-09-23T06:47:51.592Z,70.65
2018-09-23T06:50:23.904Z,71.67
2018-09-23T06:52:55.368Z,71.48
2018-09-23T06:55:26.528Z,70.88
2018-09-23T06:57:56.837Z,70.11
2018-09-23T07:00:28.342Z,70.00
2018-09-23T07:02:59.294Z,70.61
2018-09-23T07:05:31.308Z,69.17
2018-09-23T07:08:03.939Z,69.89
2018-09-23T07:10:34.212Z,70.11
2018-09-23T07:13:04.392Z,69.32
2018-09-23T07:15:37.687Z,69.34
2018-09-23T07:18:08.253Z,69.48
2018-09-23T07:20:39.442Z,68.79
2018-09-23T07:23:09.796Z,69.66
2018-09-23T07:25:39.973Z,69.30
2018-09-23T07:28:14.085Z,69.57
2018-09-23T07:30:48.824Z,69.05
2018-09-23T07:33:20.828Z,69.97
2018-09-23T07:35:54.533Z,69.75
2018-09-23T07:38:26.660Z,70.62
2018-09-23T07:40:57.782Z,70.52
2018-09-23T07:43:29.817Z,70.35
2018-09-23T07:45:59.713Z,70.80
2018-09-23T07:48:33.979Z,70.71
2018-09-23T07:51:04.633Z,70.18
2018-09-23T07:53:34.773Z,70.98
2018-09-23T07:56:05.526Z,70.61
2018-09-23T07:58:35.539Z,70.87
2018-09-23T08:01:19.691Z,70.67
2018-09-23T08:03:53.513Z,70.15
2018-09-23T08:06:31.000Z,70.17
2018-09-23T08:09:01.081Z,70.09
2018-09-23T08:11:39.804Z,70.10
2018-09-23T08:14:12.784Z,69.46
2018-09-23T08:16:43.878Z,69.21
2018-09-23T08:19:17.225Z,68.99
2018-09-23T08:21:56.171Z,69.17
2018-09-23T08:24:39.388Z,69.34
2018-09-23T08:27:10.497Z,68.67
2018-09-23T08:29:45.465Z,68.01
2018-09-23T08:32:20.181Z,68.01
2018-09-23T08:34:52.218Z,68.20
2018-09-23T08:37:22.413Z,67.69
2018-09-23T08:39:54.290Z,66.70
2018-09-23T08:42:25.469Z,67.23
2018-09-23T08:44:56.403Z,66.82
2018-09-23T08:47:29.381Z,67.54
2018-09-23T08:49:59.675Z,67.26
2018-09-23T08:52:31.590Z,66.92
2018-09-23T08:55:02.042Z,68.00
2018-09-23T08:57:33.260Z,68.54
2018-09-23T09:00:04.373Z,68.48
2018-09-23T09:02:35.650Z,68.05
2018-09-23T09:05:07.711Z,66.47
2018-09-23T09:07:40.706Z,67.24
2018-09-23T09:10:14.042Z,67.31
2018-09-23T09:12:45.505Z,67.78
2018-09-23T09:15:16.902Z,67.52
2018-09-23T09:17:47.796Z,67.42
2018-09-23T09:20:19.968Z,67.43
2018-09-23T09:22:51.211Z,67.55
2018-09-23T09:25:23.406Z,66.92
2018-09-23T09:27:56.861Z,67.35
2018-09-23T09:30:28.237Z,67.03
2018-09-23T09:32:58.204Z,66.58
2018-09-23T09:35:30.840Z,66.50
2018-09-23T09:38:01.361Z,66.81
2018-09-23T09:40:31.737Z,66.84
2018-09-23T09:43:05.217Z,65.24
2018-09-23T09:45:36.502Z,65.76
2018-09-23T09:48:06.922Z,65.68
2018-09-23T09:50:37.676Z,65.83
2018-09-23T09:53:09.347Z,65.68
2018-09-23T09:55:39.433Z,66.24
2018-09-23T09:58:12.346Z,65.63
2018-09-23T10:00:42.934Z,65.19
2018-09-23T10:03:16.491Z,65.89
2018-09-23T10:05:46.626Z,65.31
2018-09-23T10:08:19.085Z,65.14
2018-09-23T10:10:49.630Z,65.70
2018-09-23T10:13:20.104Z,65.54
2018-09-23T10:15:50.746Z,65.84
2018-09-23T10:18:20.955Z,66.01
2018-09-23T10:20:53.143Z,66.34
2018-09-23T10:23:27.034Z,66.38
2018-09-23T10:26:00.026Z,66.03
2018-09-23T10:28:32.608Z,66.63
2018-09-23T10:31:04.679Z,65.69
2018-09-23T10:33:35.055Z,65.63
2018-09-23T10:36:06.911Z,65.86
2018-09-23T10:38:37.227Z,66.13
2018-09-23T10:41:10.106Z,67.02
2018-09-23T10:43:41.132Z,67.81
2018-09-23T10:46:16.752Z,67.60
2018-09-23T10:48:49.656Z,68.41
2018-09-23T10:51:19.925Z,67.89
2018-09-23T10:53:49.978Z,68.47
2018-09-23T10:56:21.491Z,68.16
2018-09-23T10:58:51.900Z,68.09
2018-09-23T11:01:23.306Z,69.16
2018-09-23T11:03:53.884Z,70.15
2018-09-23T11:06:24.349Z,70.56
2018-09-23T11:08:54.847Z,70.43
2018-09-23T11:11:25.159Z,69.97
2018-09-23T11:13:56.014Z,70.16
2018-09-23T11:16:26.074Z,71.20
2018-09-23T11:18:56.934Z,72.10
2018-09-23T11:21:28.251Z,72.30
2018-09-23T11:24:02.409Z,72.82
2018-09-23T11:26:35.090Z,72.32
2018-09-23T11:29:06.881Z,72.25
2018-09-23T11:31:37.321Z,71.86
2018-09-23T11:34:08.823Z,72.27
2018-09-23T11:36:43.644Z,72.03
2018-09-23T11:39:15.488Z,72.68
2018-09-23T11:41:45.469Z,72.08
2018-09-23T11:44:15.946Z,71.87
2018-09-23T11:46:47.758Z,72.01
2018-09-23T11:49:19.602Z,72.07
2018-09-23T11:51:50.396Z,71.85
2018-09-23T11:54:20.882Z,71.57
2018-09-23T11:56:51.948Z,71.68
2018-09-23T11:59:22.765Z,71.81
2018-09-23T12:01:53.425Z,71.72
2018-09-23T12:04:23.483Z,71.19
2018-09-23T12:06:54.578Z,71.25
2018-09-23T12:09:26.703Z,71.51
2018-09-23T12:12:00.049Z,70.43
2018-09-23T12:14:32.132Z,71.62
2018-09-23T12:17:06.922Z,71.32
2018-09-23T12:19:39.013Z,71.78
2018-09-23T12:22:10.653Z,71.29
2018-09-23T12:24:41.114Z,71.61
2018-09-23T12:27:13.898Z,71.71
2018-09-23T12:29:45.827Z,71.13
2018-09-23T12:32:17.727Z,71.29
2018-09-23T12:34:48.912Z,71.80
2018-09-23T12:37:20.850Z,70.65
2018-09-23T12:39:52.793Z,71.65
2018-09-23T12:42:25.404Z,72.17
2018-09-23T12:44:58.255Z,73.03
2018-09-23T12:47:32.973Z,72.76
2018-09-23T12:50:06.664Z,73.91
2018-09-23T12:52:50.278Z,74.72
2018-09-23T12:55:23.964Z,76.47
2018-09-23T12:57:57.425Z,76.39
2018-09-23T13:00:30.923Z,76.77
2018-09-23T13:03:02.982Z,77.55
2018-09-23T13:05:35.454Z,78.58
2018-09-23T13:08:08.145Z,78.59
2018-09-23T13:10:40.578Z,79.72
2018-09-23T13:13:12.202Z,79.80
2018-09-23T13:15:49.899Z,79.37
2018-09-23T13:18:23.145Z,80.32
2018-09-23T13:20:55.506Z,81.17
2018-09-23T13:23:29.236Z,80.82
2018-09-23T13:26:03.062Z,81.32
2018-09-23T13:28:36.994Z,81.38
2018-09-23T13:31:09.853Z,81.83
2018-09-23T13:33:41.215Z,82.68
2018-09-23T13:36:18.141Z,82.38
2018-09-23T13:38:49.699Z,82.67
2018-09-23T13:41:24.991Z,82.84
2018-09-23T13:43:57.486Z,83.60
2018-09-23T13:46:30.187Z,84.64
2018-09-23T13:49:02.188Z,85.86
2018-09-23T13:51:33.699Z,86.25
2018-09-23T13:54:06.312Z,86.90
2018-09-23T13:56:40.801Z,87.33
2018-09-23T13:59:11.835Z,88.10
2018-09-23T14:01:43.954Z,88.25
2018-09-23T14:04:19.052Z,88.98
2018-09-23T14:06:51.844Z,88.52
2018-09-23T14:09:22.158Z,88.81
2018-09-23T14:11:52.541Z,88.48
2018-09-23T14:14:23.483Z,88.78
2018-09-23T14:16:56.148Z,88.29
2018-09-23T14:19:27.544Z,88.73
2018-09-23T14:21:58.648Z,88.75
2018-09-23T14:24:29.313Z,88.85
2018-09-23T14:27:01.577Z,88.23
2018-09-23T14:29:34.470Z,88.09
2018-09-23T14:32:07.456Z,88.53
2018-09-23T14:34:39.943Z,88.68
2018-09-23T14:37:10.676Z,88.25
2018-09-23T14:39:43.521Z,88.43
2018-09-23T14:42:16.045Z,88.75
2018-09-23T14:44:47.464Z,89.17
2018-09-23T14:47:18.704Z,88.81
2018-09-23T14:49:49.854Z,89.76
2018-09-23T14:52:21.069Z,90.31
2018-09-23T14:54:51.918Z,90.67
2018-09-23T14:57:25.159Z,91.29
2018-09-23T15:00:03.067Z,92.07
2018-09-23T15:02:29.789Z,91.67
2018-09-23T15:04:59.737Z,92.08
2018-09-23T15:07:31.751Z,92.37
2018-09-23T15:10:03.315Z,92.62
2018-09-23T15:12:39.605Z,92.63
2018-09-23T15:15:11.159Z,93.08
2018-09-23T15:17:43.753Z,93.36
2018-09-23T15:20:15.453Z,92.95
2018-09-23T15:22:45.960Z,92.93
2018-09-23T15:25:17.958Z,93.07
2018-09-23T15:28:05.175Z,93.11
2018-09-23T15:30:35.769Z,93.38
2018-09-23T15:33:06.274Z,93.10
2018-09-23T15:35:38.958Z,93.80
2018-09-23T15:38:09.501Z,93.88
2018-09-23T15:40:39.863Z,93.85
2018-09-23T15:43:10.564Z,93.83
2018-09-23T15:45:41.690Z,94.15
2018-09-23T15:48:12.126Z,94.12
2018-09-23T15:50:42.427Z,94.13
2018-09-23T15:53:13.153Z,93.60
2018-09-23T15:55:43.683Z,94.37
2018-09-23T15:58:15.268Z,93.53
2018-09-23T16:00:47.217Z,93.59
2018-09-23T16:03:17.891Z,94.08
2018-09-23T16:05:47.971Z,93.89
2018-09-23T16:08:18.551Z,94.25
2018-09-23T16:10:49.465Z,94.22
2018-09-23T16:13:21.561Z,93.96
2018-09-23T16:15:52.260Z,93.58
2018-09-23T16:18:22.646Z,93.99
2018-09-23T16:20:53.113Z,93.39
2018-09-23T16:23:23.079Z,93.79
2018-09-23T16:25:57.080Z,93.20
2018-09-23T16:28:27.658Z,92.99
2018-09-23T16:30:58.203Z,93.38
2018-09-23T16:33:28.469Z,93.28
2018-09-23T16:35:58.968Z,92.44
2018-09-23T16:38:33.840Z,93.07
2018-09-23T16:41:05.862Z,93.21
2018-09-23T16:43:37.181Z,92.32
2018-09-23T16:46:09.021Z,92.44
2018-09-23T16:48:41.250Z,92.47
2018-09-23T16:51:15.904Z,92.28
2018-09-23T16:53:47.323Z,91.65
2018-09-23T16:56:18.674Z,92.07
2018-09-23T16:58:51.571Z,91.72
2018-09-23T17:01:24.178Z,92.13
2018-09-23T17:03:55.521Z,92.27
2018-09-23T17:06:27.095Z,92.72
2018-09-23T17:08:58.649Z,92.49
2018-09-23T17:11:31.629Z,92.60
2018-09-23T17:14:03.809Z,92.77
2018-09-23T17:16:34.646Z,92.55
2018-09-23T17:19:05.534Z,93.34
2018-09-23T17:21:36.726Z,93.10
2018-09-23T17:24:10.953Z,93.39
2018-09-23T17:26:41.475Z,94.02
2018-09-23T17:29:12.550Z,93.87
2018-09-23T17:31:45.092Z,93.93
2018-09-23T17:34:15.919Z,93.57
2018-09-23T17:36:46.265Z,93.82
2018-09-23T17:39:16.348Z,94.24
2018-09-23T17:41:46.976Z,94.15
2018-09-23T17:44:18.012Z,94.25
2018-09-23T17:46:48.911Z,94.63
2018-09-23T17:49:22.562Z,94.37
2018-09-23T17:51:53.997Z,94.55
2018-09-23T17:54:24.319Z,94.77
2018-09-23T17:56:56.660Z,94.93
2018-09-23T17:59:29.657Z,95.35
2018-09-23T18:02:03.216Z,95.23
2018-09-23T18:04:41.204Z,95.12
2018-09-23T18:07:17.501Z,94.72
2018-09-23T18:09:50.163Z,94.85
2018-09-23T18:12:22.291Z,94.48
2018-09-23T18:14:55.382Z,94.80
2018-09-23T18:17:25.822Z,94.67
2018-09-23T18:19:57.792Z,94.21
2018-09-23T18:22:29.740Z,94.49
2018-09-23T18:25:01.675Z,94.61
2018-09-23T18:27:31.861Z,94.92
2018-09-23T18:30:02.773Z,94.97
2018-09-23T18:32:35.298Z,94.90
2018-09-23T18:35:06.582Z,94.78
2018-09-23T18:37:37.313Z,95.11
2018-09-23T18:40:09.091Z,95.20
2018-09-23T18:42:39.442Z,94.32
2018-09-23T18:45:13.545Z,94.26
2018-09-23T18:47:44.167Z,94.44
2018-09-23T18:50:15.509Z,94.17
2018-09-23T18:52:45.531Z,94.01
2018-09-23T18:55:20.993Z,94.13
2018-09-23T18:57:51.445Z,93.74
2018-09-23T19:00:21.661Z,94.07
2018-09-23T19:02:52.977Z,94.25
2018-09-23T19:05:22.900Z,94.16
2018-09-23T19:07:52.668Z,93.76
2018-09-23T19:10:22.933Z,93.84
2018-09-23T19:12:57.911Z,93.75
2018-09-23T19:15:29.612Z,93.52
2018-09-23T19:18:01.286Z,94.06
2018-09-23T19:20:31.359Z,93.88
2018-09-23T19:23:10.053Z,94.04
2018-09-23T19:25:40.063Z,94.07
2018-09-23T19:28:11.910Z,94.25
2018-09-23T19:30:43.151Z,93.46
2018-09-23T19:33:13.811Z,92.87
2018-09-23T19:35:44.158Z,92.79
2018-09-23T19:38:15.306Z,92.24
2018-09-23T19:40:45.894Z,92.89
2018-09-23T19:43:17.066Z,92.80
2018-09-23T19:45:47.004Z,92.61
2018-09-23T19:48:18.054Z,92.39
2018-09-23T19:50:48.741Z,92.46
2018-09-23T19:53:18.935Z,92.83
2018-09-23T19:55:49.948Z,93.05
2018-09-23T19:58:20.570Z,93.11
2018-09-23T20:00:50.599Z,93.23
2018-09-23T20:03:21.242Z,93.07
2018-09-23T20:05:52.138Z,93.46
2018-09-23T20:08:22.257Z,93.36
2018-09-23T20:10:55.146Z,93.30
2018-09-23T20:13:28.460Z,93.26
2018-09-23T20:15:58.925Z,93.75
2018-09-23T20:18:29.557Z,93.25
2018-09-23T20:21:01.024Z,92.93
2018-09-23T20:23:31.424Z,93.29
2018-09-23T20:26:02.353Z,93.22
2018-09-23T20:28:32.986Z,92.76
2018-09-23T20:31:04.205Z,92.52
2018-09-23T20:33:38.026Z,91.89
2018-09-23T20:36:09.162Z,91.22
2018-09-23T20:38:39.229Z,90.82
2018-09-23T20:41:09.103Z,90.48
2018-09-23T20:43:40.155Z,90.46
2018-09-23T20:46:10.733Z,90.29
2018-09-23T20:48:40.527Z,89.90
2018-09-23T20:51:10.756Z,89.55
2018-09-23T20:53:40.826Z,89.87
2018-09-23T20:56:12.565Z,89.62
2018-09-23T20:58:43.971Z,89.55
2018-09-23T21:01:15.793Z,89.59
2018-09-23T21:03:46.698Z,89.60
2018-09-23T21:06:16.868Z,89.84
2018-09-23T21:08:46.825Z,89.74
2018-09-23T21:11:18.161Z,89.86
2018-09-23T21:13:48.358Z,89.48
2018-09-23T21:16:18.191Z,89.84
2018-09-23T21:18:48.058Z,89.89
2018-09-23T21:21:19.031Z,89.67
2018-09-23T21:23:49.297Z,89.60
2018-09-23T21:26:19.348Z,89.62
2018-09-23T21:28:49.538Z,89.63
2018-09-23T21:31:19.462Z,89.39
2018-09-23T21:33:49.290Z,89.84
2018-09-23T21:36:19.597Z,89.79
2018-09-23T21:38:49.539Z,89.38
2018-09-23T21:41:19.962Z,89.54
2018-09-23T21:43:50.298Z,89.39
2018-09-23T21:46:20.114Z,89.30
2018-09-23T21:48:51.168Z,89.18
2018-09-23T21:51:21.366Z,88.93
2018-09-23T21:53:51.244Z,88.70
2018-09-23T21:56:21.089Z,88.72
2018-09-23T21:58:51.783Z,88.36
2018-09-23T22:01:24.411Z,88.63
2018-09-23T22:03:55.076Z,88.68
2018-09-23T22:06:24.976Z,88.25
2018-09-23T22:08:55.434Z,88.14
2018-09-23T22:11:26.618Z,88.17
2018-09-23T22:13:57.650Z,88.28
2018-09-23T22:16:28.050Z,88.15
2018-09-23T22:18:58.228Z,88.33
2018-09-23T22:21:29.065Z,88.29
2018-09-23T22:23:59.802Z,88.19
2018-09-23T22:26:30.446Z,87.94
2018-09-23T22:29:01.872Z,87.86
2018-09-23T22:31:31.774Z,87.76
2018-09-23T22:34:02.991Z,87.80
2018-09-23T22:36:33.699Z,87.64
2018-09-23T22:39:04.336Z,87.50
2018-09-23T22:41:36.295Z,87.61
2018-09-23T22:44:06.504Z,87.31
2018-09-23T22:46:36.931Z,87.41
2018-09-23T22:49:07.719Z,87.61
2018-09-23T22:51:37.742Z,87.54
2018-09-23T22:54:08.228Z,87.46
2018-09-23T22:56:38.325Z,87.60
2018-09-23T22:59:09.069Z,87.43
2018-09-23T23:01:39.336Z,87.54
2018-09-23T23:04:09.588Z,87.88
2018-09-23T23:06:40.169Z,88.08
2018-09-23T23:09:10.974Z,88.37
2018-09-23T23:11:40.969Z,88.41
2018-09-23T23:14:11.988Z,88.48
2018-09-23T23:16:41.749Z,88.54
2018-09-23T23:19:11.624Z,88.36
2018-09-23T23:21:41.686Z,88.23
2018-09-23T23:24:11.901Z,88.25
2018-09-23T23:26:41.777Z,88.43
2018-09-23T23:29:12.198Z,88.42
2018-09-23T23:31:42.100Z,88.25
2018-09-23T23:34:12.121Z,87.97
2018-09-23T23:36:42.003Z,87.93
2018-09-23T23:39:12.833Z,87.70
2018-09-23T23:41:43.218Z,87.07
2018-09-23T23:44:14.775Z,87.06
2018-09-23T23:46:44.916Z,86.86
2018-09-23T23:49:15.051Z,86.66
2018-09-23T23:51:45.225Z,86.53
2018-09-23T23:54:17.324Z,86.43
2018-09-23T23:56:47.849Z,86.61
2018-09-23T23:59:18.372Z,86.70
